createdAt,value
2018-11-07T00:01:00.512Z,31.23
2018-11-07T00:02:03.864Z,30.65
2018-11-07T00:03:07.175Z,30.02
2018-11-07T00:04:10.516Z,30.90
2018-11-07T00:05:14.915Z,31.42
2018-11-07T00:06:18.348Z,31.10
2018-11-07T00:07:21.700Z,29.92
2018-11-07T00:08:25.062Z,31.27
2018-11-07T00:09:28.392Z,31.15
2018-11-07T00:10:31.711Z,29.57
2018-11-07T00:11:35.075Z,31.02
2018-11-07T00:12:38.736Z,31.07
2018-11-07T00:13:42.031Z,30.35
2018-11-07T00:14:52.047Z,30.45
2018-11-07T00:15:55.355Z,28.57
2018-11-07T00:16:58.703Z,28.70
2018-11-07T00:18:02.063Z,30.27
2018-11-07T00:19:05.432Z,28.10
2018-11-07T00:20:09.916Z,27.52
2018-11-07T00:21:13.255Z,26.02
2018-11-07T00:22:16.620Z,28.40
2018-11-07T00:23:19.965Z,26.87
2018-11-07T00:24:23.396Z,27.05
2018-11-07T00:25:26.714Z,25.80
2018-11-07T00:26:30.095Z,24.65
2018-11-07T00:27:33.379Z,24.35
2018-11-07T00:28:36.739Z,24.90
2018-11-07T00:29:40.087Z,27.52
2018-11-07T00:30:43.403Z,26.62
2018-11-07T00:31:46.767Z,24.67
2018-11-07T00:32:50.085Z,26.65
2018-11-07T00:33:53.433Z,26.00
2018-11-07T00:34:56.810Z,24.30
2018-11-07T00:36:00.146Z,24.50
2018-11-07T00:37:03.519Z,24.15
2018-11-07T00:38:06.868Z,25.00
2018-11-07T00:39:10.855Z,24.90
2018-11-07T00:40:14.172Z,24.92
2018-11-07T00:41:17.492Z,22.82
2018-11-07T00:42:20.910Z,23.40
2018-11-07T00:43:24.239Z,23.18
2018-11-07T00:44:27.556Z,23.25
2018-11-07T00:45:30.912Z,23.30
2018-11-07T00:46:34.558Z,23.30
2018-11-07T00:47:37.925Z,24.92
2018-11-07T00:48:41.240Z,22.40
2018-11-07T00:49:44.599Z,23.10
2018-11-07T00:50:47.939Z,22.15
2018-11-07T00:51:51.252Z,21.77
2018-11-07T00:52:54.566Z,22.32
2018-11-07T00:53:57.977Z,23.05
2018-11-07T00:55:01.334Z,22.70
2018-11-07T00:56:04.691Z,21.70
2018-11-07T00:57:08.599Z,22.50
2018-11-07T00:58:12.037Z,22.37
2018-11-07T00:59:15.322Z,22.58
2018-11-07T01:00:19.912Z,21.70
2018-11-07T01:01:23.257Z,20.43
2018-11-07T01:02:26.785Z,23.62
2018-11-07T01:03:30.154Z,23.75
2018-11-07T01:04:33.475Z,24.52
2018-11-07T01:05:36.824Z,24.20
2018-11-07T01:06:40.176Z,24.23
2018-11-07T01:07:44.739Z,24.05
2018-11-07T01:08:48.088Z,22.07
2018-11-07T01:09:51.464Z,23.92
2018-11-07T01:10:54.775Z,24.07
2018-11-07T01:11:58.095Z,23.85
2018-11-07T01:13:01.437Z,22.13
2018-11-07T01:14:04.976Z,22.30
2018-11-07T01:15:08.756Z,23.83
2018-11-07T01:16:12.106Z,24.40
2018-11-07T01:17:15.452Z,24.02
2018-11-07T01:18:18.771Z,23.67
2018-11-07T01:19:22.098Z,23.32
2018-11-07T01:20:25.447Z,22.02
2018-11-07T01:21:28.758Z,23.12
2018-11-07T01:22:32.119Z,23.52
2018-11-07T01:23:35.460Z,23.90
2018-11-07T01:24:38.770Z,24.82
2018-11-07T01:25:42.099Z,24.70
2018-11-07T01:26:45.428Z,24.10
2018-11-07T01:27:48.779Z,25.27
2018-11-07T01:28:52.104Z,23.87
2018-11-07T01:29:55.435Z,25.27
2018-11-07T01:30:58.768Z,25.32
2018-11-07T01:32:02.168Z,24.25
2018-11-07T01:33:05.811Z,24.12
2018-11-07T01:34:09.137Z,24.45
2018-11-07T01:35:12.461Z,24.18
2018-11-07T01:36:15.960Z,24.67
2018-11-07T01:37:19.344Z,24.00
2018-11-07T01:38:22.711Z,24.32
2018-11-07T01:39:26.066Z,22.70
2018-11-07T01:40:29.423Z,23.62
2018-11-07T01:41:32.747Z,23.15
2018-11-07T01:42:36.080Z,24.02
2018-11-07T01:43:39.472Z,22.98
2018-11-07T01:44:42.794Z,23.75
2018-11-07T01:45:46.127Z,23.57
2018-11-07T01:46:49.459Z,23.52
2018-11-07T01:47:52.791Z,22.40
2018-11-07T01:48:56.147Z,22.70
2018-11-07T01:49:59.518Z,23.62
2018-11-07T01:51:02.844Z,22.62
2018-11-07T01:52:06.171Z,22.87
2018-11-07T01:53:09.518Z,23.62
2018-11-07T01:54:12.884Z,23.20
2018-11-07T01:55:16.250Z,24.45
2018-11-07T01:56:19.583Z,25.02
2018-11-07T01:57:22.908Z,23.18
2018-11-07T01:58:26.269Z,23.67
2018-11-07T01:59:29.612Z,23.47
2018-11-07T02:00:32.956Z,23.87
2018-11-07T02:01:36.283Z,22.37
2018-11-07T02:02:40.199Z,22.82
2018-11-07T02:03:43.530Z,22.70
2018-11-07T02:04:46.854Z,22.85
2018-11-07T02:05:50.210Z,22.62
2018-11-07T02:06:53.759Z,23.20
2018-11-07T02:07:57.095Z,21.73
2018-11-07T02:09:00.431Z,22.58
2018-11-07T02:10:04.276Z,20.80
2018-11-07T02:11:07.609Z,21.25
2018-11-07T02:12:10.951Z,22.70
2018-11-07T02:13:14.304Z,20.90
2018-11-07T02:14:17.634Z,20.90
2018-11-07T02:15:21.023Z,20.25
2018-11-07T02:16:24.390Z,21.10
2018-11-07T02:17:27.811Z,21.33
2018-11-07T02:18:31.144Z,22.37
2018-11-07T02:19:35.091Z,21.85
2018-11-07T02:20:38.444Z,20.65
2018-11-07T02:21:41.763Z,20.70
2018-11-07T02:22:45.136Z,20.68
2018-11-07T02:23:48.444Z,18.70
2018-11-07T02:24:51.816Z,20.37
2018-11-07T02:25:55.145Z,20.70
2018-11-07T02:26:58.463Z,20.60
2018-11-07T02:28:01.784Z,19.42
2018-11-07T02:29:05.547Z,19.75
2018-11-07T02:30:11.150Z,20.48
2018-11-07T02:31:14.465Z,20.12
2018-11-07T02:32:17.798Z,19.67
2018-11-07T02:33:21.172Z,18.95
2018-11-07T02:34:24.516Z,17.70
2018-11-07T02:35:27.873Z,17.90
2018-11-07T02:36:31.195Z,19.07
2018-11-07T02:37:34.544Z,17.05
2018-11-07T02:38:37.938Z,18.35
2018-11-07T02:39:41.260Z,17.98
2018-11-07T02:40:44.584Z,18.00
2018-11-07T02:41:47.955Z,19.95
2018-11-07T02:42:51.276Z,18.23
2018-11-07T02:44:01.248Z,19.70
2018-11-07T02:45:04.902Z,19.50
2018-11-07T02:46:08.682Z,17.95
2018-11-07T02:47:11.993Z,18.45
2018-11-07T02:48:15.372Z,18.35
2018-11-07T02:49:18.722Z,18.35
2018-11-07T02:50:22.035Z,18.35
2018-11-07T02:51:25.343Z,18.80
2018-11-07T02:52:28.708Z,18.12
2018-11-07T02:53:32.088Z,17.52
2018-11-07T02:54:35.391Z,17.50
2018-11-07T02:55:38.714Z,18.90
2018-11-07T02:56:42.075Z,17.98
2018-11-07T02:57:45.427Z,17.73
2018-11-07T02:58:48.777Z,17.35
2018-11-07T02:59:52.079Z,17.98
2018-11-07T03:00:55.401Z,18.52
2018-11-07T03:01:58.736Z,18.67
2018-11-07T03:03:02.088Z,17.87
2018-11-07T03:04:05.731Z,17.90
2018-11-07T03:05:09.397Z,17.35
2018-11-07T03:06:12.717Z,17.60
2018-11-07T03:07:16.070Z,15.85
2018-11-07T03:08:19.410Z,18.35
2018-11-07T03:09:22.741Z,17.95
2018-11-07T03:10:26.124Z,16.80
2018-11-07T03:11:29.439Z,16.67
2018-11-07T03:12:32.773Z,16.30
2018-11-07T03:13:36.114Z,19.00
2018-11-07T03:14:39.423Z,16.80
2018-11-07T03:15:42.784Z,17.87
2018-11-07T03:16:46.107Z,17.20
2018-11-07T03:17:49.445Z,16.40
2018-11-07T03:18:52.776Z,16.57
2018-11-07T03:19:56.086Z,16.17
2018-11-07T03:20:59.449Z,17.07
2018-11-07T03:22:02.789Z,18.12
2018-11-07T03:23:06.127Z,17.87
2018-11-07T03:24:09.452Z,17.90
2018-11-07T03:25:12.804Z,17.95
2018-11-07T03:26:16.139Z,16.62
2018-11-07T03:27:19.459Z,16.70
2018-11-07T03:28:22.796Z,17.02
2018-11-07T03:29:26.162Z,17.37
2018-11-07T03:30:29.507Z,17.30
2018-11-07T03:31:32.864Z,16.35
2018-11-07T03:32:36.203Z,17.30
2018-11-07T03:33:39.533Z,16.30
2018-11-07T03:34:42.846Z,16.42
2018-11-07T03:35:46.199Z,15.95
2018-11-07T03:36:49.524Z,16.12
2018-11-07T03:37:52.919Z,16.87
2018-11-07T03:38:56.240Z,16.85
2018-11-07T03:39:59.596Z,17.50
2018-11-07T03:41:02.948Z,17.98
2018-11-07T03:42:06.312Z,18.20
2018-11-07T03:43:09.660Z,18.90
2018-11-07T03:44:12.983Z,18.70
2018-11-07T03:45:16.346Z,18.95
2018-11-07T03:46:19.672Z,19.85
2018-11-07T03:47:23.075Z,17.45
2018-11-07T03:48:27.448Z,18.80
2018-11-07T03:49:30.770Z,18.20
2018-11-07T03:50:34.108Z,18.85
2018-11-07T03:51:37.434Z,18.10
2018-11-07T03:52:41.205Z,17.77
2018-11-07T03:53:44.545Z,18.35
2018-11-07T03:54:47.873Z,18.15
2018-11-07T03:55:51.200Z,18.10
2018-11-07T03:56:54.525Z,18.30
2018-11-07T03:57:57.885Z,17.67
2018-11-07T03:59:01.231Z,17.35
2018-11-07T04:00:06.355Z,17.20
2018-11-07T04:01:09.672Z,17.15
2018-11-07T04:02:12.995Z,16.70
2018-11-07T04:03:16.400Z,17.80
2018-11-07T04:04:19.727Z,17.55
2018-11-07T04:05:23.102Z,17.02
2018-11-07T04:06:26.419Z,16.87
2018-11-07T04:07:29.731Z,17.10
2018-11-07T04:08:33.075Z,15.85
2018-11-07T04:09:36.421Z,15.15
2018-11-07T04:10:39.747Z,16.15
2018-11-07T04:11:44.159Z,16.07
2018-11-07T04:12:47.469Z,16.75
2018-11-07T04:13:50.799Z,16.20
2018-11-07T04:14:54.111Z,17.40
2018-11-07T04:16:04.088Z,19.60
2018-11-07T04:17:07.416Z,20.32
2018-11-07T04:18:10.755Z,19.70
2018-11-07T04:19:14.423Z,18.35
2018-11-07T04:20:17.764Z,19.35
2018-11-07T04:21:21.080Z,19.05
2018-11-07T04:22:24.399Z,20.05
2018-11-07T04:23:27.745Z,21.07
2018-11-07T04:24:31.057Z,20.05
2018-11-07T04:25:34.387Z,20.72
2018-11-07T04:26:38.346Z,20.25
2018-11-07T04:27:41.654Z,21.33
2018-11-07T04:28:44.967Z,20.92
2018-11-07T04:29:48.270Z,21.23
2018-11-07T04:30:51.616Z,20.82
2018-11-07T04:31:54.936Z,19.85
2018-11-07T04:32:58.244Z,19.40
2018-11-07T04:34:01.543Z,19.55
2018-11-07T04:35:05.515Z,20.20
2018-11-07T04:36:08.867Z,20.80
2018-11-07T04:37:12.184Z,20.55
2018-11-07T04:38:15.495Z,19.45
2018-11-07T04:39:18.937Z,21.37
2018-11-07T04:40:22.193Z,21.65
2018-11-07T04:41:25.701Z,21.90
2018-11-07T04:42:29.042Z,20.25
2018-11-07T04:43:32.363Z,20.25
2018-11-07T04:45:45.381Z,21.15
2018-11-07T04:46:48.703Z,20.25
2018-11-07T04:47:52.023Z,20.52
2018-11-07T04:48:55.327Z,20.27
2018-11-07T04:49:58.648Z,20.50
2018-11-07T04:51:01.996Z,19.98
2018-11-07T04:52:05.347Z,19.57
2018-11-07T04:53:08.664Z,18.50
2018-11-07T04:54:12.012Z,19.32
2018-11-07T04:55:15.340Z,19.40
2018-11-07T04:56:18.714Z,20.62
2018-11-07T04:57:22.027Z,19.92
2018-11-07T04:58:25.371Z,18.02
2018-11-07T04:59:28.715Z,19.98
2018-11-07T05:00:32.068Z,18.45
2018-11-07T05:01:35.430Z,18.05
2018-11-07T05:02:38.854Z,17.62
2018-11-07T05:03:42.183Z,16.70
2018-11-07T05:04:45.503Z,16.30
2018-11-07T05:05:48.843Z,16.90
2018-11-07T05:06:52.199Z,16.87
2018-11-07T05:07:55.580Z,17.00
2018-11-07T05:08:58.878Z,17.52
2018-11-07T05:10:02.190Z,16.37
2018-11-07T05:11:05.580Z,17.98
2018-11-07T05:12:08.935Z,16.75
2018-11-07T05:13:12.262Z,17.40
2018-11-07T05:14:15.617Z,16.80
2018-11-07T05:15:18.970Z,16.32
2018-11-07T05:16:22.289Z,16.65
2018-11-07T05:17:25.642Z,15.95
2018-11-07T05:18:28.950Z,15.35
2018-11-07T05:19:32.301Z,16.60
2018-11-07T05:20:35.613Z,16.50
2018-11-07T05:21:38.939Z,16.90
2018-11-07T05:22:42.316Z,16.25
2018-11-07T05:23:45.640Z,16.23
2018-11-07T05:24:48.992Z,16.15
2018-11-07T05:25:52.311Z,16.35
2018-11-07T05:26:55.661Z,15.93
2018-11-07T05:27:59.021Z,15.00
2018-11-07T05:29:02.602Z,15.65
2018-11-07T05:30:07.332Z,15.98
2018-11-07T05:31:10.663Z,15.58
2018-11-07T05:32:14.064Z,16.35
2018-11-07T05:33:17.401Z,15.35
2018-11-07T05:34:20.723Z,15.75
2018-11-07T05:35:24.050Z,17.30
2018-11-07T05:36:27.369Z,17.15
2018-11-07T05:37:30.752Z,17.10
2018-11-07T05:38:34.075Z,18.20
2018-11-07T05:39:37.403Z,18.50
2018-11-07T05:40:40.715Z,19.02
2018-11-07T05:41:44.035Z,18.07
2018-11-07T05:42:47.412Z,17.42
2018-11-07T05:43:50.751Z,18.00
2018-11-07T05:44:54.100Z,17.90
2018-11-07T05:45:57.443Z,17.85
2018-11-07T05:47:00.767Z,18.12
2018-11-07T05:48:04.123Z,18.75
2018-11-07T05:49:07.524Z,19.30
2018-11-07T05:50:10.991Z,17.50
2018-11-07T05:51:14.318Z,19.48
2018-11-07T05:52:17.672Z,20.25
2018-11-07T05:53:20.988Z,20.37
2018-11-07T05:54:24.353Z,19.85
2018-11-07T05:55:27.675Z,19.32
2018-11-07T05:56:31.001Z,17.48
2018-11-07T05:57:34.364Z,19.25
2018-11-07T05:58:37.695Z,17.62
2018-11-07T05:59:41.060Z,18.48
2018-11-07T06:00:44.435Z,18.48
2018-11-07T06:01:47.858Z,17.57
2018-11-07T06:02:51.182Z,17.02
2018-11-07T06:03:54.508Z,17.32
2018-11-07T06:04:57.823Z,16.30
2018-11-07T06:06:01.172Z,15.98
2018-11-07T06:07:04.507Z,17.20
2018-11-07T06:08:07.856Z,15.80
2018-11-07T06:09:11.235Z,16.50
2018-11-07T06:10:14.566Z,15.85
2018-11-07T06:11:17.872Z,16.95
2018-11-07T06:12:21.239Z,17.23
2018-11-07T06:13:24.555Z,16.97
2018-11-07T06:14:27.869Z,19.23
2018-11-07T06:15:31.191Z,19.00
2018-11-07T06:16:34.775Z,17.77
2018-11-07T06:17:38.135Z,20.50
2018-11-07T06:18:41.504Z,20.20
2018-11-07T06:19:44.931Z,19.55
2018-11-07T06:20:48.264Z,21.25
2018-11-07T06:21:57.962Z,19.73
2018-11-07T06:23:01.341Z,19.90
2018-11-07T06:24:04.988Z,19.82
2018-11-07T06:25:08.331Z,20.02
2018-11-07T06:26:11.659Z,19.20
2018-11-07T06:27:14.987Z,18.82
2018-11-07T06:28:18.347Z,18.48
2018-11-07T06:29:21.730Z,19.25
2018-11-07T06:30:25.070Z,20.72
2018-11-07T06:31:28.402Z,20.25
2018-11-07T06:32:31.739Z,19.50
2018-11-07T06:33:35.104Z,19.77
2018-11-07T06:34:38.431Z,20.60
2018-11-07T06:35:41.785Z,20.10
2018-11-07T06:36:45.115Z,20.40
2018-11-07T06:37:48.472Z,18.52
2018-11-07T06:38:51.855Z,17.77
2018-11-07T06:39:55.207Z,18.75
2018-11-07T06:40:58.528Z,17.73
2018-11-07T06:42:01.860Z,19.17
2018-11-07T06:43:05.292Z,18.42
2018-11-07T06:44:09.200Z,18.60
2018-11-07T06:45:12.531Z,19.17
2018-11-07T06:46:15.889Z,18.27
2018-11-07T06:47:19.214Z,18.87
2018-11-07T06:48:22.586Z,19.35
2018-11-07T06:49:25.944Z,21.52
2018-11-07T06:50:29.267Z,21.42
2018-11-07T06:51:32.588Z,20.80
2018-11-07T06:52:35.944Z,21.35
2018-11-07T06:53:39.270Z,21.50
2018-11-07T06:54:42.617Z,23.45
2018-11-07T06:55:46.067Z,22.65
2018-11-07T06:56:49.331Z,21.23
2018-11-07T06:57:52.661Z,22.25
2018-11-07T06:58:56.000Z,22.98
2018-11-07T06:59:59.347Z,21.65
2018-11-07T07:01:02.728Z,22.85
2018-11-07T07:02:06.087Z,22.93
2018-11-07T07:03:09.412Z,21.42
2018-11-07T07:04:12.748Z,20.32
2018-11-07T07:05:16.615Z,20.12
2018-11-07T07:06:19.985Z,20.50
2018-11-07T07:07:23.295Z,20.52
2018-11-07T07:08:26.619Z,21.37
2018-11-07T07:09:29.980Z,20.40
2018-11-07T07:10:33.291Z,20.27
2018-11-07T07:11:36.631Z,20.68
2018-11-07T07:12:40.291Z,20.48
2018-11-07T07:13:43.647Z,19.82
2018-11-07T07:14:47.015Z,18.52
2018-11-07T07:15:50.336Z,19.17
2018-11-07T07:16:53.651Z,18.90
2018-11-07T07:17:57.032Z,19.42
2018-11-07T07:19:00.352Z,18.15
2018-11-07T07:20:03.718Z,19.67
2018-11-07T07:21:07.083Z,19.45
2018-11-07T07:22:10.400Z,19.23
2018-11-07T07:23:13.748Z,18.52
2018-11-07T07:24:17.062Z,19.20
2018-11-07T07:25:20.402Z,17.15
2018-11-07T07:26:23.812Z,15.93
2018-11-07T07:27:27.145Z,16.55
2018-11-07T07:28:30.456Z,15.78
2018-11-07T07:29:33.773Z,15.53
2018-11-07T07:30:37.225Z,16.45
2018-11-07T07:31:40.487Z,15.48
2018-11-07T07:32:44.823Z,15.95
2018-11-07T07:33:48.162Z,16.12
2018-11-07T07:34:51.491Z,16.77
2018-11-07T07:35:54.808Z,15.78
2018-11-07T07:36:58.148Z,17.75
2018-11-07T07:38:01.463Z,17.62
2018-11-07T07:39:07.403Z,18.15
2018-11-07T07:40:12.240Z,18.32
2018-11-07T07:41:15.558Z,19.05
2018-11-07T07:42:18.915Z,18.15
2018-11-07T07:43:22.224Z,20.68
2018-11-07T07:44:25.531Z,19.57
2018-11-07T07:45:28.840Z,19.30
2018-11-07T07:46:32.235Z,18.48
2018-11-07T07:47:35.643Z,18.67
2018-11-07T07:48:38.989Z,19.45
2018-11-07T07:49:42.303Z,18.62
2018-11-07T07:50:45.611Z,19.25
2018-11-07T07:51:48.979Z,18.73
2018-11-07T07:52:52.346Z,18.50
2018-11-07T07:53:55.707Z,19.40
2018-11-07T07:54:59.026Z,20.10
2018-11-07T07:56:02.335Z,22.37
2018-11-07T07:57:05.683Z,21.87
2018-11-07T07:58:09.024Z,29.45
2018-11-07T07:59:18.847Z,25.75
2018-11-07T08:00:22.195Z,23.22
2018-11-07T08:01:25.516Z,21.62
2018-11-07T08:02:28.840Z,21.60
2018-11-07T08:03:32.170Z,19.17
2018-11-07T08:04:35.483Z,19.82
2018-11-07T08:05:38.869Z,23.27
2018-11-07T08:06:42.236Z,22.00
2018-11-07T08:07:46.092Z,20.55
2018-11-07T08:08:49.418Z,19.92
2018-11-07T08:09:52.744Z,19.87
2018-11-07T08:10:56.095Z,19.37
2018-11-07T08:11:59.408Z,21.02
2018-11-07T08:13:02.740Z,21.57
2018-11-07T08:14:06.495Z,21.73
2018-11-07T08:15:10.232Z,20.85
2018-11-07T08:16:13.580Z,20.50
2018-11-07T08:17:16.906Z,21.12
2018-11-07T08:18:20.256Z,22.90
2018-11-07T08:19:23.571Z,21.77
2018-11-07T08:20:26.897Z,21.00
2018-11-07T08:21:30.250Z,21.00
2018-11-07T08:22:33.561Z,21.42
2018-11-07T08:23:36.900Z,21.35
2018-11-07T08:24:40.263Z,20.50
2018-11-07T08:25:43.612Z,20.27
2018-11-07T08:26:46.935Z,22.10
2018-11-07T08:27:50.263Z,20.35
2018-11-07T08:28:53.632Z,19.10
2018-11-07T08:29:56.952Z,21.05
2018-11-07T08:31:00.355Z,19.20
2018-11-07T08:32:03.623Z,20.00
2018-11-07T08:33:06.984Z,20.57
2018-11-07T08:34:10.352Z,19.20
2018-11-07T08:35:14.424Z,19.23
2018-11-07T08:36:17.740Z,20.05
2018-11-07T08:37:21.100Z,20.17
2018-11-07T08:38:24.435Z,20.40
2018-11-07T08:39:27.752Z,19.95
2018-11-07T08:40:31.075Z,20.72
2018-11-07T08:41:34.409Z,21.00
2018-11-07T08:42:38.220Z,19.90
2018-11-07T08:43:41.613Z,20.65
2018-11-07T08:44:44.943Z,21.60
2018-11-07T08:45:48.298Z,21.20
2018-11-07T08:46:51.631Z,21.60
2018-11-07T08:47:54.949Z,21.85
2018-11-07T08:48:58.319Z,21.00
2018-11-07T08:50:01.646Z,23.45
2018-11-07T08:51:05.380Z,23.00
2018-11-07T08:52:08.712Z,21.30
2018-11-07T08:53:12.068Z,20.37
2018-11-07T08:54:15.392Z,20.82
2018-11-07T08:55:19.892Z,21.10
2018-11-07T08:56:23.215Z,20.72
2018-11-07T08:57:26.575Z,21.12
2018-11-07T08:58:29.892Z,20.30
2018-11-07T08:59:33.225Z,23.55
2018-11-07T09:00:36.600Z,22.42
2018-11-07T09:01:40.819Z,23.95
2018-11-07T09:02:44.639Z,23.02
2018-11-07T09:03:47.984Z,24.15
2018-11-07T09:04:51.366Z,22.10
2018-11-07T09:05:54.695Z,25.30
2018-11-07T09:06:58.024Z,22.02
2018-11-07T09:08:01.335Z,21.75
2018-11-07T09:09:08.159Z,21.52
2018-11-07T09:10:12.888Z,20.48
2018-11-07T09:11:16.213Z,19.80
2018-11-07T09:12:19.539Z,21.40
2018-11-07T09:13:22.866Z,19.85
2018-11-07T09:14:26.220Z,20.20
2018-11-07T09:15:29.540Z,18.85
2018-11-07T09:16:32.907Z,21.23
2018-11-07T09:17:36.266Z,20.80
2018-11-07T09:18:39.620Z,18.73
2018-11-07T09:19:42.959Z,20.45
2018-11-07T09:20:46.271Z,21.90
2018-11-07T09:21:49.623Z,21.20
2018-11-07T09:22:52.984Z,22.82
2018-11-07T09:23:56.307Z,20.72
2018-11-07T09:24:59.639Z,19.37
2018-11-07T09:26:02.970Z,21.17
2018-11-07T09:27:06.321Z,20.32
2018-11-07T09:28:09.659Z,19.67
2018-11-07T09:29:13.100Z,18.98
2018-11-07T09:30:17.587Z,20.12
2018-11-07T09:31:20.950Z,19.05
2018-11-07T09:32:24.284Z,18.60
2018-11-07T09:33:27.611Z,20.23
2018-11-07T09:34:30.955Z,19.52
2018-11-07T09:35:34.277Z,20.45
2018-11-07T09:36:37.762Z,20.95
2018-11-07T09:37:41.111Z,20.23
2018-11-07T09:38:44.475Z,19.90
2018-11-07T09:39:47.865Z,20.15
2018-11-07T09:40:51.199Z,20.80
2018-11-07T09:41:54.634Z,20.77
2018-11-07T09:42:57.963Z,20.77
2018-11-07T09:44:01.276Z,21.50
2018-11-07T09:45:05.004Z,19.15
2018-11-07T09:46:08.352Z,18.20
2018-11-07T09:47:11.716Z,16.32
2018-11-07T09:48:15.121Z,15.80
2018-11-07T09:49:18.392Z,15.00
2018-11-07T09:50:21.732Z,13.70
2018-11-07T09:51:25.059Z,14.18
2018-11-07T09:52:28.411Z,13.45
2018-11-07T09:53:31.741Z,14.47
2018-11-07T09:54:35.094Z,13.28
2018-11-07T09:55:38.435Z,14.55
2018-11-07T09:56:41.823Z,13.55
2018-11-07T09:57:45.338Z,13.90
2018-11-07T09:58:48.676Z,13.35
2018-11-07T09:59:52.443Z,13.75
2018-11-07T10:00:55.780Z,13.08
2018-11-07T10:01:59.148Z,12.65
2018-11-07T10:03:02.570Z,13.80
2018-11-07T10:04:05.880Z,14.05
2018-11-07T10:05:09.836Z,13.10
2018-11-07T10:06:13.167Z,12.58
2018-11-07T10:07:16.500Z,12.82
2018-11-07T10:08:19.863Z,12.50
2018-11-07T10:09:23.197Z,11.97
2018-11-07T10:10:26.559Z,12.75
2018-11-07T10:11:29.892Z,11.20
2018-11-07T10:12:33.217Z,11.75
2018-11-07T10:13:36.591Z,12.23
2018-11-07T10:14:39.959Z,11.15
2018-11-07T10:15:43.292Z,11.55
2018-11-07T10:16:46.662Z,10.72
2018-11-07T10:17:49.999Z,10.20
2018-11-07T10:18:53.338Z,10.80
2018-11-07T10:19:56.720Z,10.63
2018-11-07T10:21:00.059Z,10.40
2018-11-07T10:22:03.423Z,10.15
2018-11-07T10:23:06.772Z,10.38
2018-11-07T10:24:10.103Z,9.43
2018-11-07T10:25:14.167Z,10.75
2018-11-07T10:26:17.509Z,10.35
2018-11-07T10:27:21.185Z,9.75
2018-11-07T10:28:24.371Z,9.95
2018-11-07T10:29:27.823Z,10.35
2018-11-07T10:30:31.005Z,9.53
2018-11-07T10:31:34.275Z,8.80
2018-11-07T10:32:37.646Z,10.18
2018-11-07T10:33:40.985Z,8.65
2018-11-07T10:34:44.356Z,9.63
2018-11-07T10:35:47.680Z,8.33
2018-11-07T10:36:51.017Z,7.62
2018-11-07T10:37:54.460Z,7.85
2018-11-07T10:38:57.862Z,8.13
2018-11-07T10:40:01.400Z,8.15
2018-11-07T10:41:04.771Z,9.65
2018-11-07T10:42:08.091Z,9.15
2018-11-07T10:43:11.419Z,8.98
2018-11-07T10:44:14.825Z,7.72
2018-11-07T10:45:18.059Z,7.60
2018-11-07T10:46:21.823Z,7.92
2018-11-07T10:47:25.174Z,8.13
2018-11-07T10:48:34.884Z,8.40
2018-11-07T10:49:38.316Z,8.35
2018-11-07T10:50:41.652Z,7.25
2018-11-07T10:51:45.052Z,7.17
2018-11-07T10:52:48.898Z,9.00
2018-11-07T10:53:52.215Z,8.38
2018-11-07T10:54:55.544Z,7.25
2018-11-07T10:55:58.895Z,6.22
2018-11-07T10:57:02.219Z,7.00
2018-11-07T10:58:05.598Z,16.80
2018-11-07T10:59:08.934Z,6.95
2018-11-07T11:00:18.885Z,6.97
2018-11-07T11:01:27.583Z,5.60
2018-11-07T11:02:36.323Z,5.92
2018-11-07T11:03:39.635Z,5.75
2018-11-07T11:04:42.966Z,6.00
2018-11-07T11:05:46.291Z,6.40
2018-11-07T11:06:49.660Z,5.92
2018-11-07T11:07:52.975Z,5.95
2018-11-07T11:08:56.381Z,5.80
2018-11-07T11:09:59.735Z,5.60
2018-11-07T11:11:03.153Z,5.83
2018-11-07T11:12:06.502Z,5.72
2018-11-07T11:13:09.849Z,8.00
2018-11-07T11:14:13.161Z,7.85
2018-11-07T11:15:16.491Z,7.62
2018-11-07T11:16:19.853Z,6.53
2018-11-07T11:17:23.259Z,7.15
2018-11-07T11:18:26.552Z,7.35
2018-11-07T11:19:29.913Z,6.10
2018-11-07T11:20:33.225Z,6.20
2018-11-07T11:21:36.545Z,5.57
2018-11-07T11:22:39.892Z,6.73
2018-11-07T11:23:43.235Z,6.20
2018-11-07T11:24:46.556Z,5.60
2018-11-07T11:25:49.975Z,6.00
2018-11-07T11:26:53.735Z,5.60
2018-11-07T11:27:57.061Z,6.20
2018-11-07T11:29:00.415Z,5.77
2018-11-07T11:30:03.804Z,5.30
2018-11-07T11:31:07.136Z,5.50
2018-11-07T11:32:10.471Z,6.00
2018-11-07T11:33:13.810Z,5.47
2018-11-07T11:34:17.294Z,5.40
2018-11-07T11:35:20.623Z,5.20
2018-11-07T11:36:23.835Z,5.30
2018-11-07T11:37:27.203Z,4.53
2018-11-07T11:38:30.528Z,5.10
2018-11-07T11:39:33.883Z,4.87
2018-11-07T11:40:37.255Z,5.00
2018-11-07T11:41:41.462Z,6.13
2018-11-07T11:42:45.720Z,5.40
2018-11-07T11:43:49.052Z,5.10
2018-11-07T11:44:52.383Z,5.67
2018-11-07T11:45:55.701Z,4.80
2018-11-07T11:46:59.082Z,5.90
2018-11-07T11:48:02.464Z,5.17
2018-11-07T11:49:06.396Z,5.10
2018-11-07T11:50:12.503Z,4.83
2018-11-07T11:51:15.867Z,5.40
2018-11-07T11:52:19.210Z,5.30
2018-11-07T11:53:22.519Z,5.17
2018-11-07T11:54:25.852Z,4.70
2018-11-07T11:55:29.192Z,4.43
2018-11-07T11:56:32.508Z,4.50
2018-11-07T11:57:35.856Z,5.30
2018-11-07T11:58:39.177Z,4.63
2018-11-07T11:59:42.675Z,4.57
2018-11-07T12:00:45.851Z,4.80
2018-11-07T12:01:49.165Z,4.83
2018-11-07T12:02:52.505Z,4.77
2018-11-07T12:03:55.829Z,4.37
2018-11-07T12:04:59.192Z,5.33
2018-11-07T12:06:02.517Z,4.17
2018-11-07T12:07:05.831Z,5.07
2018-11-07T12:08:09.254Z,5.07
2018-11-07T12:09:12.534Z,4.70
2018-11-07T12:10:23.112Z,4.37
2018-11-07T12:11:26.423Z,4.77
2018-11-07T12:12:29.742Z,4.90
2018-11-07T12:13:39.749Z,4.60
2018-11-07T12:14:43.047Z,4.57
2018-11-07T12:15:46.398Z,5.77
2018-11-07T12:16:49.712Z,4.93
2018-11-07T12:17:53.636Z,4.50
2018-11-07T12:18:56.942Z,4.43
2018-11-07T12:20:00.248Z,4.43
2018-11-07T12:21:03.696Z,4.40
2018-11-07T12:22:06.953Z,4.83
2018-11-07T12:23:10.269Z,4.33
2018-11-07T12:24:13.571Z,5.17
2018-11-07T12:25:17.670Z,4.40
2018-11-07T12:26:21.006Z,4.23
2018-11-07T12:27:24.329Z,4.07
2018-11-07T12:28:27.636Z,4.40
2018-11-07T12:29:30.956Z,3.70
2018-11-07T12:30:34.313Z,4.17
2018-11-07T12:31:37.631Z,3.97
2018-11-07T12:32:41.249Z,4.30
2018-11-07T12:33:44.555Z,4.00
2018-11-07T12:34:47.864Z,4.40
2018-11-07T12:35:51.234Z,3.93
2018-11-07T12:36:54.560Z,3.83
2018-11-07T12:37:57.860Z,4.27
2018-11-07T12:39:01.204Z,4.17
2018-11-07T12:40:05.255Z,4.30
2018-11-07T12:41:08.647Z,3.97
2018-11-07T12:42:11.949Z,4.10
2018-11-07T12:43:15.291Z,3.50
2018-11-07T12:44:18.635Z,4.63
2018-11-07T12:45:21.949Z,4.13
2018-11-07T12:46:25.303Z,4.60
2018-11-07T12:47:28.615Z,4.00
2018-11-07T12:48:31.927Z,3.87
2018-11-07T12:49:35.264Z,3.60
2018-11-07T12:50:38.581Z,3.27
2018-11-07T12:51:41.936Z,3.97
2018-11-07T12:52:45.860Z,3.60
2018-11-07T12:53:49.186Z,4.03
2018-11-07T12:54:52.492Z,4.30
2018-11-07T12:55:55.778Z,3.90
2018-11-07T12:56:59.137Z,3.73
2018-11-07T12:58:02.621Z,3.73
2018-11-07T12:59:05.872Z,4.37
2018-11-07T13:00:12.711Z,4.23
2018-11-07T13:01:16.023Z,3.97
2018-11-07T13:02:19.395Z,4.43
2018-11-07T13:03:22.768Z,3.40
2018-11-07T13:04:26.123Z,3.70
2018-11-07T13:05:29.431Z,4.40
2018-11-07T13:06:32.788Z,4.10
2018-11-07T13:07:36.167Z,4.00
2018-11-07T13:08:39.487Z,3.50
2018-11-07T13:09:42.831Z,3.33
2018-11-07T13:10:46.172Z,3.67
2018-11-07T13:11:49.496Z,4.00
2018-11-07T13:12:53.199Z,3.30
2018-11-07T13:13:56.599Z,3.57
2018-11-07T13:14:59.930Z,4.50
2018-11-07T13:16:03.256Z,3.70
2018-11-07T13:17:06.583Z,4.70
2018-11-07T13:18:09.940Z,4.20
2018-11-07T13:19:13.259Z,3.60
2018-11-07T13:20:18.593Z,3.90
2018-11-07T13:21:21.918Z,3.90
2018-11-07T13:22:25.307Z,5.13
2018-11-07T13:23:28.604Z,4.80
2018-11-07T13:24:31.924Z,7.47
2018-11-07T13:25:35.281Z,4.50
2018-11-07T13:26:38.639Z,4.07
2018-11-07T13:27:41.958Z,3.60
2018-11-07T13:28:45.358Z,3.60
2018-11-07T13:29:48.645Z,3.70
2018-11-07T13:30:52.004Z,3.90
2018-11-07T13:31:55.341Z,3.93
2018-11-07T13:32:58.655Z,3.20
2018-11-07T13:34:02.015Z,3.90
2018-11-07T13:35:06.004Z,3.50
2018-11-07T13:36:09.266Z,3.70
2018-11-07T13:37:12.811Z,3.10
2018-11-07T13:38:16.229Z,3.40
2018-11-07T13:39:19.950Z,3.10
2018-11-07T13:40:25.536Z,3.80
2018-11-07T13:41:28.884Z,3.67
2018-11-07T13:42:32.196Z,3.60
2018-11-07T13:43:35.591Z,3.40
2018-11-07T13:44:38.925Z,3.47
2018-11-07T13:45:42.275Z,3.27